Time;durP1;ratioP1;P1;durP2;ratioP2;P2;SDS_P1;SDS_P2;PMS_P1;PMS_P2;Temp;Humidity;BMP_temperature;BMP_pressure;BME280_temperature;BME280_humidity;BME280_pressure;Samples;Min_cycle;Max_cycle;Signal;HPM_P1;HPM_P2
2024/01/22 00:01:00;;;;;;;;;4.67;4.67;;;;;;;;5071135;28;10151;-84
2024/01/22 00:03:30;;;;;;;;;4.00;4.00;;;;;;;;5069511;28;9429;-82
2024/01/22 00:05:57;;;;;;;;;6.00;4.00;;;;;;;;5070271;28;9479;-82
2024/01/22 00:08:24;;;;;;;;;6.25;2.75;;;;;;;;5067094;28;9392;-82
2024/01/22 00:10:52;;;;;;;;;4.50;4.50;;;;;;;;5067740;28;9448;-82
2024/01/22 00:13:20;;;;;;;;;6.00;4.00;;;;;;;;5068088;28;9493;-83
2024/01/22 00:15:48;;;;;;;;;5.00;3.33;;;;;;;;5057557;28;9561;-82
2024/01/22 00:18:15;;;;;;;;;4.67;4.67;;;;;;;;5067853;28;9331;-83
2024/01/22 00:20:42;;;;;;;;;3.00;3.00;;;;;;;;5067914;28;9479;-82
2024/01/22 00:23:10;;;;;;;;;5.75;5.75;;;;;;;;5067649;28;9329;-82
2024/01/22 00:25:37;;;;;;;;;5.00;5.00;;;;;;;;5068328;28;9517;-81
2024/01/22 00:28:06;;;;;;;;;4.33;4.33;;;;;;;;5066836;28;9305;-82
2024/01/22 00:30:35;;;;;;;;;4.00;4.00;;;;;;;;5068096;28;9354;-81
2024/01/22 00:33:02;;;;;;;;;3.00;3.00;;;;;;;;5067502;28;9184;-81
2024/01/22 00:35:32;;;;;;;;;5.00;5.00;;;;;;;;5067147;28;9189;-80
2024/01/22 00:38:02;;;;;;;;;7.33;3.00;;;;;;;;5055603;28;9300;-82
2024/01/22 00:40:32;;;;;;;;;5.00;5.00;;;;;;;;5066480;28;9422;-81
2024/01/22 00:43:02;;;;;;;;;2.00;2.00;;;;;;;;5058160;28;9282;-82
2024/01/22 00:45:32;;;;;;;;;3.67;3.67;;;;;;;;5065445;28;9169;-81
2024/01/22 00:48:03;;;;;;;;;3.00;3.00;;;;;;;;5068493;28;9251;-82
2024/01/22 00:50:33;;;;;;;;;4.00;4.00;;;;;;;;5068268;28;9370;-82
2024/01/22 00:53:00;;;;;;;;;5.00;3.00;;;;;;;;5068720;28;9159;-80
2024/01/22 00:55:28;;;;;;;;;3.00;3.00;;;;;;;;5050725;28;9251;-82
2024/01/22 00:57:55;;;;;;;;;4.00;2.00;;;;;;;;5068523;28;9250;-82
2024/01/22 01:00:23;;;;;;;;;4.33;3.00;;;;;;;;5071557;28;9235;-82
2024/01/22 01:02:50;;;;;;;;;2.00;2.00;;;;;;;;5073535;28;9618;-83
2024/01/22 01:05:19;;;;;;;;;3.33;2.00;;;;;;;;5073429;28;9015;-82
2024/01/22 01:07:46;;;;;;;;;3.00;3.00;;;;;;;;5069616;28;9098;-83
2024/01/22 01:10:14;;;;;;;;;3.67;2.33;;;;;;;;5069580;28;8993;-82
2024/01/22 01:12:41;;;;;;;;;2.33;2.00;;;;;;;;5073413;28;9171;-82
2024/01/22 01:15:09;;;;;;;;;4.00;2.00;;;;;;;;5067271;28;9092;-81
2024/01/22 01:17:38;;;;;;;;;0.67;0.67;;;;;;;;5061992;28;9110;-82
2024/01/22 01:20:06;;;;;;;;;1.00;1.00;;;;;;;;5064900;28;8932;-82
2024/01/22 01:22:35;;;;;;;;;2.00;2.00;;;;;;;;5067416;28;8935;-82
2024/01/22 01:25:02;;;;;;;;;2.00;2.00;;;;;;;;5065118;28;8852;-82
2024/01/22 01:27:30;;;;;;;;;2.33;2.00;;;;;;;;5065844;28;8987;-82
2024/01/22 01:29:57;;;;;;;;;2.75;2.00;;;;;;;;5067471;28;9104;-82
2024/01/22 01:32:26;;;;;;;;;1.00;1.00;;;;;;;;5069824;28;8916;-83
2024/01/22 01:34:54;;;;;;;;;2.00;2.00;;;;;;;;5069772;28;8871;-80
2024/01/22 01:37:21;;;;;;;;;1.00;1.00;;;;;;;;5075566;28;9058;-81
2024/01/22 01:39:49;;;;;;;;;2.00;2.00;;;;;;;;5068177;28;9014;-82
2024/01/22 01:42:18;;;;;;;;;3.67;3.33;;;;;;;;5067790;28;8991;-82
2024/01/22 01:44:50;;;;;;;;;1.25;1.25;;;;;;;;5072891;28;9009;-81
2024/01/22 01:47:23;;;;;;;;;1.00;1.00;;;;;;;;5074607;28;8882;-82
2024/01/22 01:49:50;;;;;;;;;1.67;1.67;;;;;;;;5075715;28;8887;-82
2024/01/22 01:52:19;;;;;;;;;2.00;2.00;;;;;;;;5073068;28;8947;-81
2024/01/22 01:54:49;;;;;;;;;4.67;2.00;;;;;;;;5069368;28;8940;-82
2024/01/22 01:57:16;;;;;;;;;2.00;2.00;;;;;;;;5068779;28;9018;-82
2024/01/22 01:59:44;;;;;;;;;1.00;1.00;;;;;;;;5070875;28;9792;-82
2024/01/22 02:02:11;;;;;;;;;1.00;1.00;;;;;;;;5069061;28;8801;-83
2024/01/22 02:04:38;;;;;;;;;3.00;1.50;;;;;;;;5070868;28;8867;-82
2024/01/22 02:07:06;;;;;;;;;3.00;1.25;;;;;;;;5071201;28;8994;-81
2024/01/22 02:09:46;;;;;;;;;3.00;2.00;;;;;;;;5070645;28;8876;-82
2024/01/22 02:12:16;;;;;;;;;3.75;2.25;;;;;;;;5060903;28;8860;-82
2024/01/22 02:14:43;;;;;;;;;1.00;1.00;;;;;;;;5069562;28;8965;-82
2024/01/22 02:17:10;;;;;;;;;1.00;1.00;;;;;;;;5071373;28;8849;-82
2024/01/22 02:19:38;;;;;;;;;3.00;1.75;;;;;;;;5069127;28;8922;-82
2024/01/22 02:22:05;;;;;;;;;2.00;2.00;;;;;;;;5070500;28;8871;-82
2024/01/22 02:24:34;;;;;;;;;2.00;2.00;;;;;;;;5070222;28;8978;-82
2024/01/22 02:27:01;;;;;;;;;2.25;2.25;;;;;;;;5070294;28;8848;-82
2024/01/22 02:29:31;;;;;;;;;1.25;1.25;;;;;;;;5058497;28;9004;-82
2024/01/22 02:31:58;;;;;;;;;1.00;1.00;;;;;;;;5055018;28;8791;-81
2024/01/22 02:34:26;;;;;;;;;2.50;2.50;;;;;;;;5060617;28;8875;-81
2024/01/22 02:36:53;;;;;;;;;2.00;2.00;;;;;;;;5061305;28;8897;-81
2024/01/22 02:39:21;;;;;;;;;3.75;2.50;;;;;;;;5065716;28;8895;-81
2024/01/22 02:41:49;;;;;;;;;6.75;4.00;;;;;;;;5070445;28;9256;-82
2024/01/22 02:44:17;;;;;;;;;2.00;2.00;;;;;;;;5068938;28;8830;-82
2024/01/22 02:46:44;;;;;;;;;3.00;1.75;;;;;;;;5070287;28;8852;-82
2024/01/22 02:49:12;;;;;;;;;2.75;2.50;;;;;;;;5073458;28;8860;-82
2024/01/22 02:51:39;;;;;;;;;2.00;2.00;;;;;;;;5073892;28;8845;-82
2024/01/22 02:54:06;;;;;;;;;2.00;2.00;;;;;;;;5075139;28;8888;-82
2024/01/22 02:56:36;;;;;;;;;2.50;2.50;;;;;;;;5075145;28;8864;-82
2024/01/22 02:59:05;;;;;;;;;2.00;2.00;;;;;;;;5075208;28;8852;-83
2024/01/22 03:01:32;;;;;;;;;2.00;2.00;;;;;;;;5074454;28;8911;-83
2024/01/22 03:04:02;;;;;;;;;3.00;2.00;;;;;;;;5075438;28;8859;-83
2024/01/22 03:06:30;;;;;;;;;2.00;2.00;;;;;;;;5061962;28;8877;-83
2024/01/22 03:08:59;;;;;;;;;2.00;2.00;;;;;;;;5066163;28;8868;-83
2024/01/22 03:11:26;;;;;;;;;2.25;2.25;;;;;;;;5070573;28;8872;-84
2024/01/22 03:13:54;;;;;;;;;2.00;2.00;;;;;;;;5058643;28;8866;-83
2024/01/22 03:16:22;;;;;;;;;0.75;0.75;;;;;;;;5064575;28;8871;-83
2024/01/22 03:18:50;;;;;;;;;2.00;2.00;;;;;;;;5069602;28;9619;-82
2024/01/22 03:21:17;;;;;;;;;1.00;1.00;;;;;;;;5059305;28;9662;-82
2024/01/22 03:23:45;;;;;;;;;2.75;2.75;;;;;;;;5060595;28;8825;-82
2024/01/22 03:26:20;;;;;;;;;1.25;1.25;;;;;;;;5062708;28;8934;-82
2024/01/22 03:28:48;;;;;;;;;2.00;1.00;;;;;;;;5068233;28;8871;-82
2024/01/22 03:31:24;;;;;;;;;2.00;2.00;;;;;;;;5059466;28;8792;-81
2024/01/22 03:33:51;;;;;;;;;0.00;0.00;;;;;;;;5056337;28;8866;-83
2024/01/22 03:36:18;;;;;;;;;1.25;1.25;;;;;;;;5065712;28;8862;-83
2024/01/22 03:38:46;;;;;;;;;1.50;1.50;;;;;;;;5065304;28;8985;-82
2024/01/22 03:41:13;;;;;;;;;1.00;1.00;;;;;;;;5071291;28;8970;-83
2024/01/22 03:43:42;;;;;;;;;2.00;1.00;;;;;;;;5069598;28;8848;-82
2024/01/22 03:46:10;;;;;;;;;2.00;2.00;;;;;;;;5068793;28;8840;-83
2024/01/22 03:48:39;;;;;;;;;1.00;1.00;;;;;;;;5068731;28;8894;-82
2024/01/22 03:51:06;;;;;;;;;1.00;1.00;;;;;;;;5068959;28;8875;-82
2024/01/22 03:53:34;;;;;;;;;1.75;1.75;;;;;;;;5068202;28;9642;-83
2024/01/22 03:56:04;;;;;;;;;1.75;1.00;;;;;;;;5069048;28;9615;-82
2024/01/22 03:58:32;;;;;;;;;1.75;1.25;;;;;;;;5068075;28;8864;-82
2024/01/22 04:01:00;;;;;;;;;2.00;2.00;;;;;;;;5068717;28;8781;-82
2024/01/22 04:03:31;;;;;;;;;1.25;1.25;;;;;;;;5067717;28;8834;-82
2024/01/22 04:06:00;;;;;;;;;1.75;1.75;;;;;;;;5068835;28;8894;-82
2024/01/22 04:08:27;;;;;;;;;0.75;0.75;;;;;;;;5066963;28;8955;-81
2024/01/22 04:10:55;;;;;;;;;1.00;1.00;;;;;;;;5069110;28;8841;-84
2024/01/22 04:13:22;;;;;;;;;1.00;1.00;;;;;;;;5068090;28;8974;-82
2024/01/22 04:15:52;;;;;;;;;1.00;1.00;;;;;;;;5068977;28;8939;-79
2024/01/22 04:18:19;;;;;;;;;1.25;1.25;;;;;;;;5070060;28;9584;-82
2024/01/22 04:20:47;;;;;;;;;1.00;1.00;;;;;;;;5068323;28;8875;-81
2024/01/22 04:23:16;;;;;;;;;1.00;1.00;;;;;;;;5068250;28;8833;-81
2024/01/22 04:25:43;;;;;;;;;1.00;1.00;;;;;;;;5068406;28;8892;-82
2024/01/22 04:28:10;;;;;;;;;1.75;1.25;;;;;;;;5064680;28;8971;-82
2024/01/22 04:30:38;;;;;;;;;2.00;2.00;;;;;;;;5068044;28;8780;-82
2024/01/22 04:33:05;;;;;;;;;0.75;0.75;;;;;;;;5068617;28;8844;-82
2024/01/22 04:35:33;;;;;;;;;5.00;1.00;;;;;;;;5058799;28;8858;-82
2024/01/22 04:38:03;;;;;;;;;1.75;1.75;;;;;;;;5057266;28;8866;-81
2024/01/22 04:40:37;;;;;;;;;0.00;0.00;;;;;;;;5071986;28;8878;-81
2024/01/22 04:43:04;;;;;;;;;3.00;1.50;;;;;;;;5073682;28;8874;-82
2024/01/22 04:45:32;;;;;;;;;2.00;0.25;;;;;;;;5073013;28;8886;-82
2024/01/22 04:47:59;;;;;;;;;1.00;1.00;;;;;;;;5074562;28;8880;-82
2024/01/22 04:50:27;;;;;;;;;1.00;1.00;;;;;;;;5071256;28;9027;-81
2024/01/22 04:52:54;;;;;;;;;1.75;1.00;;;;;;;;5072121;28;8856;-81
2024/01/22 04:55:21;;;;;;;;;2.50;0.00;;;;;;;;5072687;28;8821;-81
2024/01/22 04:57:50;;;;;;;;;1.00;1.00;;;;;;;;5069589;28;8849;-83
2024/01/22 05:00:19;;;;;;;;;1.00;1.00;;;;;;;;5066485;28;8855;-82
2024/01/22 05:02:46;;;;;;;;;2.00;2.00;;;;;;;;5067718;28;9677;-81
2024/01/22 05:05:15;;;;;;;;;1.00;1.00;;;;;;;;5069128;28;8856;-83
2024/01/22 05:07:44;;;;;;;;;0.25;0.25;;;;;;;;5074839;28;8844;-83
2024/01/22 05:10:13;;;;;;;;;1.00;1.00;;;;;;;;5059288;28;8981;-82
2024/01/22 05:12:41;;;;;;;;;1.00;1.00;;;;;;;;5059767;28;9733;-81
2024/01/22 05:15:12;;;;;;;;;1.00;1.00;;;;;;;;5067565;28;8919;-86
2024/01/22 05:17:57;;;;;;;;;1.00;1.00;;;;;;;;5068169;28;8884;-82
2024/01/22 05:20:25;;;;;;;;;1.00;1.00;;;;;;;;5065685;28;8845;-82
2024/01/22 05:22:52;;;;;;;;;2.00;1.00;;;;;;;;5064785;28;8916;-83
2024/01/22 05:25:19;;;;;;;;;0.75;0.75;;;;;;;;5071796;28;8878;-82
2024/01/22 05:27:47;;;;;;;;;1.75;1.75;;;;;;;;5074533;28;8844;-82
2024/01/22 05:30:17;;;;;;;;;0.00;0.00;;;;;;;;5070708;28;8840;-83
2024/01/22 05:32:44;;;;;;;;;1.75;1.00;;;;;;;;5053033;28;8837;-83
2024/01/22 05:35:12;;;;;;;;;1.00;1.00;;;;;;;;5067391;28;8852;-83
2024/01/22 05:37:39;;;;;;;;;1.00;1.00;;;;;;;;5058644;28;9018;-83
2024/01/22 05:40:09;;;;;;;;;0.50;0.00;;;;;;;;5070335;28;8961;-82
2024/01/22 05:42:39;;;;;;;;;0.67;0.67;;;;;;;;5070938;28;8937;-81
2024/01/22 05:45:08;;;;;;;;;0.00;0.00;;;;;;;;5071810;28;9015;-82
2024/01/22 05:47:36;;;;;;;;;0.50;0.50;;;;;;;;5069783;28;8869;-82
2024/01/22 05:50:04;;;;;;;;;0.00;0.00;;;;;;;;5071710;28;8886;-82
2024/01/22 05:52:32;;;;;;;;;0.25;0.25;;;;;;;;5069157;28;8876;-83
2024/01/22 05:55:02;;;;;;;;;0.00;0.00;;;;;;;;5071331;28;8852;-81
2024/01/22 05:57:32;;;;;;;;;0.00;0.00;;;;;;;;5071457;28;8853;-83
2024/01/22 06:00:09;;;;;;;;;0.75;0.75;;;;;;;;5071255;28;8865;-82
2024/01/22 06:02:37;;;;;;;;;0.00;0.00;;;;;;;;5060511;28;8794;-82
2024/01/22 06:05:06;;;;;;;;;0.50;0.50;;;;;;;;5068573;28;8901;-81
2024/01/22 06:07:33;;;;;;;;;0.25;0.25;;;;;;;;5070746;28;8915;-81
2024/01/22 06:10:00;;;;;;;;;0.75;0.75;;;;;;;;5069865;28;8871;-80
2024/01/22 06:12:28;;;;;;;;;1.00;1.00;;;;;;;;5071662;28;8862;-79
2024/01/22 06:14:55;;;;;;;;;0.00;0.00;;;;;;;;5069976;28;8846;-79
2024/01/22 06:17:24;;;;;;;;;0.00;0.00;;;;;;;;5061893;28;8840;-79
2024/01/22 06:19:53;;;;;;;;;2.00;0.50;;;;;;;;5064789;28;8862;-74
2024/01/22 06:22:20;;;;;;;;;0.00;0.00;;;;;;;;5062186;28;8872;-76
2024/01/22 06:24:47;;;;;;;;;0.00;0.00;;;;;;;;5070461;28;8842;-79
2024/01/22 06:27:14;;;;;;;;;1.00;0.00;;;;;;;;5072667;28;8899;-79
2024/01/22 06:29:41;;;;;;;;;0.25;0.25;;;;;;;;5069214;28;8830;-80
2024/01/22 06:32:09;;;;;;;;;0.00;0.00;;;;;;;;5074111;28;8917;-79
2024/01/22 06:34:37;;;;;;;;;1.25;1.25;;;;;;;;5073945;28;8923;-78
2024/01/22 06:37:06;;;;;;;;;1.00;1.00;;;;;;;;5073987;28;8846;-79
2024/01/22 06:39:34;;;;;;;;;1.00;1.00;;;;;;;;5073871;28;8841;-77
2024/01/22 06:42:01;;;;;;;;;1.00;1.00;;;;;;;;5075376;28;8899;-75
2024/01/22 06:44:31;;;;;;;;;1.00;1.00;;;;;;;;5073248;28;8858;-79
2024/01/22 06:46:58;;;;;;;;;0.75;0.75;;;;;;;;5072590;28;9656;-73
2024/01/22 06:49:25;;;;;;;;;4.00;2.00;;;;;;;;5070838;28;8965;-77
2024/01/22 06:51:53;;;;;;;;;1.75;1.75;;;;;;;;5069931;28;8880;-72
2024/01/22 06:54:21;;;;;;;;;1.00;1.00;;;;;;;;5070549;28;8866;-75
2024/01/22 06:56:49;;;;;;;;;1.00;1.00;;;;;;;;5068822;28;8868;-73
2024/01/22 06:59:16;;;;;;;;;1.00;1.00;;;;;;;;5065722;28;8873;-73
2024/01/22 07:01:43;;;;;;;;;1.00;1.00;;;;;;;;5064407;28;8918;-74
2024/01/22 07:04:10;;;;;;;;;1.75;1.75;;;;;;;;5069848;28;8869;-77
2024/01/22 07:06:37;;;;;;;;;2.00;2.00;;;;;;;;5068902;28;8845;-73
2024/01/22 07:09:06;;;;;;;;;1.00;1.00;;;;;;;;5069386;28;8874;-72
2024/01/22 07:11:34;;;;;;;;;1.50;1.00;;;;;;;;5068928;28;8839;-75
2024/01/22 07:14:02;;;;;;;;;1.00;1.00;;;;;;;;5069678;28;8879;-73
2024/01/22 07:16:32;;;;;;;;;2.75;2.75;;;;;;;;5069512;28;8834;-72
2024/01/22 07:19:02;;;;;;;;;2.25;1.50;;;;;;;;5055978;28;8875;-72
2024/01/22 07:21:33;;;;;;;;;1.00;1.00;;;;;;;;5069039;28;8842;-73
2024/01/22 07:24:03;;;;;;;;;1.00;1.00;;;;;;;;5072252;28;8861;-76
2024/01/22 07:26:34;;;;;;;;;2.00;2.00;;;;;;;;5059318;28;8835;-74
2024/01/22 07:29:02;;;;;;;;;1.00;1.00;;;;;;;;5067554;28;8871;-74
2024/01/22 07:31:31;;;;;;;;;1.00;1.00;;;;;;;;5058104;28;8815;-74
2024/01/22 07:34:02;;;;;;;;;2.00;2.00;;;;;;;;5060514;28;8857;-78
2024/01/22 07:36:29;;;;;;;;;1.00;1.00;;;;;;;;5059012;28;8837;-74
2024/01/22 07:38:57;;;;;;;;;1.50;1.50;;;;;;;;5063119;28;8893;-76
2024/01/22 07:41:25;;;;;;;;;0.50;0.00;;;;;;;;5067001;28;8874;-73
2024/01/22 07:43:53;;;;;;;;;1.00;1.00;;;;;;;;5067465;28;8870;-73
2024/01/22 07:46:20;;;;;;;;;1.25;1.25;;;;;;;;5069370;28;8854;-73
2024/01/22 07:48:47;;;;;;;;;2.00;0.00;;;;;;;;5068173;28;8894;-75
2024/01/22 07:51:15;;;;;;;;;2.75;1.50;;;;;;;;5068945;28;8854;-72
2024/01/22 07:53:43;;;;;;;;;1.00;1.00;;;;;;;;5066101;28;8904;-76
2024/01/22 07:56:10;;;;;;;;;0.25;0.25;;;;;;;;5068719;28;8847;-72
2024/01/22 07:58:39;;;;;;;;;1.00;1.00;;;;;;;;5069006;28;8839;-80
2024/01/22 08:01:08;;;;;;;;;1.25;1.25;;;;;;;;5068729;28;8779;-81
2024/01/22 08:03:35;;;;;;;;;1.00;1.00;;;;;;;;5069015;28;8839;-82
2024/01/22 08:06:03;;;;;;;;;2.50;1.00;;;;;;;;5067877;28;8889;-88
2024/01/22 08:08:33;;;;;;;;;0.25;0.25;;;;;;;;5066809;28;9755;-75
2024/01/22 08:11:00;;;;;;;;;1.00;1.00;;;;;;;;5069348;28;8973;-72
2024/01/22 08:13:29;;;;;;;;;1.00;1.00;;;;;;;;5068796;28;8847;-78
2024/01/22 08:15:56;;;;;;;;;1.00;1.00;;;;;;;;5068985;28;8914;-80
2024/01/22 08:18:25;;;;;;;;;1.00;1.00;;;;;;;;5069874;28;8965;-83
2024/01/22 08:20:52;;;;;;;;;0.00;0.00;;;;;;;;5058291;28;8865;-83
2024/01/22 08:23:20;;;;;;;;;0.00;0.00;;;;;;;;5066087;28;9386;-82
2024/01/22 08:25:47;;;;;;;;;0.00;0.00;;;;;;;;5066900;28;8859;-81
2024/01/22 08:28:14;;;;;;;;;0.00;0.00;;;;;;;;5073557;28;8960;-77
2024/01/22 08:30:41;;;;;;;;;0.00;0.00;;;;;;;;5074008;28;8767;-84
2024/01/22 08:33:09;;;;;;;;;0.00;0.00;;;;;;;;5074661;28;8924;-81
2024/01/22 08:35:37;;;;;;;;;0.00;0.00;;;;;;;;5073242;28;8869;-81
2024/01/22 08:38:05;;;;;;;;;0.75;0.00;;;;;;;;5057351;28;8993;-78
2024/01/22 08:40:32;;;;;;;;;0.75;0.75;;;;;;;;5068050;28;8984;-72
2024/01/22 08:43:01;;;;;;;;;1.50;0.00;;;;;;;;5056143;28;9024;-76
2024/01/22 08:45:33;;;;;;;;;0.00;0.00;;;;;;;;5065476;28;8977;-71
2024/01/22 08:48:00;;;;;;;;;1.00;1.00;;;;;;;;5068271;28;8851;-73
2024/01/22 08:50:29;;;;;;;;;1.00;1.00;;;;;;;;5065451;28;8975;-74
2024/01/22 08:52:58;;;;;;;;;2.00;0.00;;;;;;;;5068064;28;8846;-74
2024/01/22 08:55:26;;;;;;;;;0.00;0.00;;;;;;;;5068092;28;8846;-73
2024/01/22 08:57:54;;;;;;;;;0.00;0.00;;;;;;;;5066550;28;8879;-79
2024/01/22 09:00:21;;;;;;;;;1.50;0.25;;;;;;;;5065516;28;8854;-75
2024/01/22 09:02:49;;;;;;;;;0.25;0.25;;;;;;;;5066631;28;8880;-81
2024/01/22 09:05:17;;;;;;;;;1.25;0.00;;;;;;;;5068391;28;8851;-76
2024/01/22 09:07:46;;;;;;;;;0.00;0.00;;;;;;;;5069736;28;8870;-75
2024/01/22 09:10:15;;;;;;;;;0.00;0.00;;;;;;;;5069708;28;8871;-86
2024/01/22 09:12:42;;;;;;;;;2.75;1.00;;;;;;;;5071285;28;8851;-76
2024/01/22 09:15:10;;;;;;;;;1.25;1.00;;;;;;;;5070288;28;8886;-72
2024/01/22 09:17:37;;;;;;;;;0.75;0.75;;;;;;;;5074083;28;8842;-72
2024/01/22 09:20:06;;;;;;;;;0.00;0.00;;;;;;;;5068798;28;8885;-77
2024/01/22 09:22:34;;;;;;;;;0.50;0.50;;;;;;;;5068130;28;8928;-77
2024/01/22 09:25:01;;;;;;;;;0.50;0.00;;;;;;;;5065973;28;8892;-74
2024/01/22 09:27:32;;;;;;;;;1.75;1.00;;;;;;;;5067582;28;8831;-76
2024/01/22 09:29:59;;;;;;;;;1.25;1.25;;;;;;;;5068363;28;8851;-75
2024/01/22 09:32:27;;;;;;;;;2.75;1.50;;;;;;;;5066685;28;8819;-79
2024/01/22 09:34:54;;;;;;;;;1.00;1.00;;;;;;;;5066768;28;8847;-78
2024/01/22 09:37:21;;;;;;;;;5.25;1.50;;;;;;;;5055263;28;8999;-73
2024/01/22 09:39:49;;;;;;;;;0.00;0.00;;;;;;;;5067788;28;8897;-81
2024/01/22 09:42:16;;;;;;;;;1.00;0.00;;;;;;;;5067832;28;8854;-77
2024/01/22 09:44:46;;;;;;;;;2.00;0.00;;;;;;;;5067326;28;8850;-76
2024/01/22 09:47:13;;;;;;;;;0.00;0.00;;;;;;;;5067434;28;8835;-73
2024/01/22 09:49:40;;;;;;;;;0.00;0.00;;;;;;;;5066556;28;8957;-71
2024/01/22 09:52:11;;;;;;;;;0.00;0.00;;;;;;;;5065760;28;9372;-83
2024/01/22 09:54:40;;;;;;;;;0.00;0.00;;;;;;;;5067900;28;8851;-83
2024/01/22 09:57:11;;;;;;;;;0.00;0.00;;;;;;;;5067440;28;8858;-80
2024/01/22 09:59:39;;;;;;;;;0.00;0.00;;;;;;;;5066853;28;8858;-82
2024/01/22 10:02:08;;;;;;;;;0.33;0.00;;;;;;;;5064352;28;8821;-80
2024/01/22 10:04:35;;;;;;;;;1.00;0.00;;;;;;;;5067032;28;8965;-81
2024/01/22 10:07:03;;;;;;;;;0.00;0.00;;;;;;;;5071951;28;9701;-79
2024/01/22 10:09:30;;;;;;;;;1.00;1.00;;;;;;;;5071601;28;8955;-72
2024/01/22 10:11:57;;;;;;;;;0.25;0.25;;;;;;;;5075637;28;8936;-82
2024/01/22 10:14:34;;;;;;;;;0.75;0.00;;;;;;;;5077149;28;8866;-88
2024/01/22 10:17:17;;;;;;;;;2.50;0.75;;;;;;;;5075348;28;8993;-88
2024/01/22 10:19:45;;;;;;;;;0.75;0.75;;;;;;;;5076890;28;8822;-86
2024/01/22 10:22:12;;;;;;;;;3.50;1.00;;;;;;;;5074145;28;8862;-82
2024/01/22 10:24:40;;;;;;;;;1.00;1.00;;;;;;;;5074083;28;9640;-82
2024/01/22 10:27:16;;;;;;;;;0.50;0.50;;;;;;;;5072588;28;8823;-77
2024/01/22 10:29:45;;;;;;;;;1.50;1.50;;;;;;;;5070291;28;8857;-73
2024/01/22 10:32:12;;;;;;;;;3.00;0.75;;;;;;;;5065158;28;8802;-77
2024/01/22 10:34:50;;;;;;;;;0.25;0.00;;;;;;;;5060150;28;8849;-80
2024/01/22 10:37:18;;;;;;;;;2.75;1.00;;;;;;;;5058358;28;9505;-74
2024/01/22 10:40:00;;;;;;;;;0.25;0.25;;;;;;;;5070342;28;8985;-72
2024/01/22 10:42:27;;;;;;;;;1.50;1.50;;;;;;;;5068091;28;8846;-74
2024/01/22 10:44:55;;;;;;;;;2.50;2.00;;;;;;;;5070066;28;8981;-71
2024/01/22 10:47:23;;;;;;;;;2.75;2.00;;;;;;;;5069817;28;8858;-73
2024/01/22 10:49:53;;;;;;;;;5.50;1.25;;;;;;;;5070535;28;9697;-78
2024/01/22 10:52:21;;;;;;;;;2.25;0.25;;;;;;;;5070456;28;8847;-76
2024/01/22 10:54:48;;;;;;;;;1.00;1.00;;;;;;;;5070680;28;8855;-77
2024/01/22 10:57:20;;;;;;;;;1.50;0.00;;;;;;;;5072113;28;8854;-81
2024/01/22 10:59:49;;;;;;;;;2.00;2.00;;;;;;;;5071980;28;8851;-79
2024/01/22 11:02:19;;;;;;;;;2.50;1.00;;;;;;;;5069290;28;8847;-76
2024/01/22 11:04:47;;;;;;;;;2.00;1.00;;;;;;;;5071540;28;8993;-77
2024/01/22 11:07:28;;;;;;;;;2.75;1.25;;;;;;;;5072000;28;8855;-87
2024/01/22 11:09:58;;;;;;;;;3.00;1.00;;;;;;;;5068493;28;8938;-77
2024/01/22 11:12:28;;;;;;;;;6.50;1.00;;;;;;;;5074667;28;8879;-72
2024/01/22 11:14:56;;;;;;;;;0.50;0.50;;;;;;;;5071926;28;8976;-79
2024/01/22 11:17:25;;;;;;;;;2.25;1.50;;;;;;;;5066598;28;8846;-76
2024/01/22 11:19:52;;;;;;;;;4.00;2.00;;;;;;;;5059159;28;8859;-76
2024/01/22 11:22:23;;;;;;;;;3.00;1.00;;;;;;;;5059451;28;8845;-76
2024/01/22 11:25:01;;;;;;;;;1.75;1.00;;;;;;;;5056245;28;8831;-78
2024/01/22 11:27:38;;;;;;;;;2.50;1.00;;;;;;;;5064562;28;8849;-76
2024/01/22 11:30:33;;;;;;;;;2.75;1.25;;;;;;;;5066768;28;9527;-76
2024/01/22 11:33:03;;;;;;;;;3.25;1.00;;;;;;;;5067630;28;8877;-74
2024/01/22 11:35:33;;;;;;;;;1.00;1.00;;;;;;;;5069007;28;8855;-76
2024/01/22 11:38:03;;;;;;;;;5.50;2.25;;;;;;;;5060454;28;8858;-77
2024/01/22 11:40:50;;;;;;;;;2.75;2.00;;;;;;;;5067489;28;8870;-75
2024/01/22 11:43:18;;;;;;;;;4.50;1.50;;;;;;;;5068106;28;8838;-73
2024/01/22 11:45:46;;;;;;;;;3.00;2.00;;;;;;;;5068610;28;8873;-74
2024/01/22 11:48:17;;;;;;;;;2.00;2.00;;;;;;;;5069765;28;8846;-77
2024/01/22 11:50:44;;;;;;;;;2.00;1.00;;;;;;;;5055895;28;9630;-80
2024/01/22 11:53:13;;;;;;;;;2.00;2.00;;;;;;;;5069213;28;8847;-82
2024/01/22 11:55:40;;;;;;;;;2.00;2.00;;;;;;;;5069282;28;8847;-82
2024/01/22 11:58:11;;;;;;;;;2.25;2.00;;;;;;;;5070778;28;8847;-81
2024/01/22 12:00:38;;;;;;;;;4.00;2.00;;;;;;;;5068594;28;8791;-83
2024/01/22 12:03:06;;;;;;;;;3.00;1.25;;;;;;;;5073402;28;9023;-86
2024/01/22 12:05:33;;;;;;;;;1.75;1.75;;;;;;;;5071826;28;8998;-82
2024/01/22 12:08:00;;;;;;;;;5.75;2.25;;;;;;;;5071340;28;8835;-73
2024/01/22 12:10:30;;;;;;;;;3.00;1.00;;;;;;;;5070855;28;8847;-80
2024/01/22 12:12:59;;;;;;;;;0.50;0.00;;;;;;;;5073619;28;8867;-83
2024/01/22 12:15:30;;;;;;;;;5.00;2.00;;;;;;;;5074357;28;8917;-81
2024/01/22 12:17:57;;;;;;;;;4.25;2.00;;;;;;;;5072059;28;9648;-80
2024/01/22 12:20:25;;;;;;;;;2.50;2.00;;;;;;;;5068192;28;8961;-75
2024/01/22 12:22:59;;;;;;;;;4.75;2.00;;;;;;;;5067911;28;8993;-74
2024/01/22 12:25:36;;;;;;;;;6.00;3.00;;;;;;;;5068603;28;9029;-79
2024/01/22 12:28:10;;;;;;;;;2.00;2.00;;;;;;;;5064666;28;8858;-73
2024/01/22 12:30:38;;;;;;;;;3.50;3.50;;;;;;;;5064365;28;8813;-76
2024/01/22 12:33:05;;;;;;;;;2.50;0.75;;;;;;;;5064437;28;8864;-79
2024/01/22 12:35:32;;;;;;;;;6.75;1.75;;;;;;;;5067525;28;8863;-75
2024/01/22 12:37:59;;;;;;;;;4.25;2.75;;;;;;;;5067967;28;8876;-74
2024/01/22 12:40:28;;;;;;;;;3.25;1.25;;;;;;;;5068066;28;8908;-71
2024/01/22 12:43:01;;;;;;;;;4.00;1.00;;;;;;;;5067311;28;8879;-76
2024/01/22 12:45:28;;;;;;;;;4.00;2.50;;;;;;;;5069519;28;8900;-79
2024/01/22 12:47:55;;;;;;;;;5.75;2.00;;;;;;;;5068776;28;8858;-73
2024/01/22 12:50:24;;;;;;;;;1.25;0.75;;;;;;;;5070613;28;8858;-75
2024/01/22 12:52:51;;;;;;;;;2.50;0.25;;;;;;;;5071893;28;8882;-75
2024/01/22 12:55:18;;;;;;;;;4.33;3.00;;;;;;;;5068118;28;8861;-81
2024/01/22 12:57:45;;;;;;;;;3.00;1.00;;;;;;;;5067568;28;8953;-76
2024/01/22 13:00:15;;;;;;;;;1.00;1.00;;;;;;;;5067649;28;8835;-82
2024/01/22 13:02:43;;;;;;;;;1.00;1.00;;;;;;;;5066590;28;8934;-82
2024/01/22 13:05:10;;;;;;;;;1.00;1.00;;;;;;;;5067590;28;9007;-75
2024/01/22 13:07:37;;;;;;;;;2.00;2.00;;;;;;;;5067940;28;9024;-79
2024/01/22 13:10:05;;;;;;;;;2.67;1.00;;;;;;;;5066215;28;8990;-82
2024/01/22 13:12:32;;;;;;;;;3.67;2.33;;;;;;;;5067612;28;9040;-80
2024/01/22 13:15:02;;;;;;;;;3.33;1.67;;;;;;;;5068080;28;9035;-79
2024/01/22 13:17:31;;;;;;;;;2.50;1.00;;;;;;;;5068403;28;9193;-78
2024/01/22 13:19:58;;;;;;;;;2.00;0.00;;;;;;;;5069663;28;8884;-78
2024/01/22 13:22:25;;;;;;;;;4.00;1.00;;;;;;;;5053226;28;8904;-73
2024/01/22 13:24:53;;;;;;;;;0.50;0.50;;;;;;;;5065514;28;8933;-77
2024/01/22 13:27:20;;;;;;;;;1.00;1.00;;;;;;;;5068183;28;8903;-79
2024/01/22 13:29:47;;;;;;;;;1.25;1.25;;;;;;;;5063524;28;9247;-76
2024/01/22 13:32:14;;;;;;;;;0.25;0.25;;;;;;;;5067603;28;8799;-75
2024/01/22 13:34:43;;;;;;;;;1.50;0.00;;;;;;;;5067142;28;8839;-76
2024/01/22 13:37:10;;;;;;;;;1.50;1.00;;;;;;;;5055474;28;8944;-73
2024/01/22 13:39:38;;;;;;;;;3.50;1.00;;;;;;;;5067680;28;8865;-74
2024/01/22 13:42:06;;;;;;;;;1.25;1.25;;;;;;;;5071470;28;8869;-82
2024/01/22 13:44:33;;;;;;;;;0.75;0.75;;;;;;;;5071899;28;8850;-81
2024/01/22 13:47:01;;;;;;;;;0.75;0.75;;;;;;;;5072223;28;8893;-81
2024/01/22 13:49:28;;;;;;;;;0.25;0.25;;;;;;;;5073638;28;8961;-83
2024/01/22 13:52:02;;;;;;;;;1.25;1.25;;;;;;;;5074608;28;8855;-80
2024/01/22 13:54:32;;;;;;;;;0.00;0.00;;;;;;;;5065468;28;8881;-82
2024/01/22 13:56:59;;;;;;;;;0.25;0.25;;;;;;;;5068662;28;8961;-81
2024/01/22 13:59:27;;;;;;;;;0.25;0.25;;;;;;;;5077081;28;8873;-84
2024/01/22 14:01:55;;;;;;;;;0.00;0.00;;;;;;;;5075663;28;8795;-83
2024/01/22 14:04:24;;;;;;;;;5.50;2.00;;;;;;;;5076452;28;8925;-82
2024/01/22 14:06:52;;;;;;;;;1.00;1.00;;;;;;;;5073121;28;8880;-79
2024/01/22 14:09:20;;;;;;;;;3.25;1.00;;;;;;;;5068674;28;8887;-81
2024/01/22 14:11:47;;;;;;;;;1.00;1.00;;;;;;;;5068788;28;9681;-73
2024/01/22 14:14:15;;;;;;;;;2.00;1.50;;;;;;;;5070703;28;8862;-73
2024/01/22 14:16:43;;;;;;;;;1.00;0.00;;;;;;;;5067416;28;8877;-81
2024/01/22 14:19:12;;;;;;;;;0.00;0.00;;;;;;;;5070770;28;9641;-77
2024/01/22 14:21:39;;;;;;;;;4.50;1.00;;;;;;;;5070598;28;8842;-76
2024/01/22 14:24:07;;;;;;;;;1.00;1.00;;;;;;;;5070818;28;8874;-75
2024/01/22 14:26:36;;;;;;;;;0.25;0.25;;;;;;;;5054705;28;8823;-76
2024/01/22 14:29:03;;;;;;;;;1.50;1.00;;;;;;;;5067604;28;8839;-74
2024/01/22 14:31:30;;;;;;;;;0.50;0.50;;;;;;;;5070000;28;8942;-73
2024/01/22 14:33:58;;;;;;;;;3.75;1.25;;;;;;;;5071020;28;8863;-79
2024/01/22 14:36:25;;;;;;;;;4.00;0.25;;;;;;;;5064261;28;8938;-76
2024/01/22 14:38:52;;;;;;;;;3.25;2.50;;;;;;;;5065651;28;8851;-80
2024/01/22 14:41:22;;;;;;;;;1.00;1.00;;;;;;;;5072398;28;8855;-81
2024/01/22 14:43:50;;;;;;;;;1.00;1.00;;;;;;;;5071950;28;8882;-82
2024/01/22 14:46:19;;;;;;;;;1.75;1.25;;;;;;;;5059759;28;8847;-72
2024/01/22 14:48:49;;;;;;;;;0.75;0.75;;;;;;;;5068953;28;8866;-82
2024/01/22 14:51:16;;;;;;;;;0.25;0.25;;;;;;;;5069524;28;8851;-76
2024/01/22 14:53:45;;;;;;;;;2.25;1.00;;;;;;;;5070665;28;8901;-78
2024/01/22 14:56:14;;;;;;;;;2.75;1.00;;;;;;;;5067024;28;8977;-82
2024/01/22 14:58:41;;;;;;;;;3.25;2.00;;;;;;;;5066680;28;8846;-81
2024/01/22 15:01:10;;;;;;;;;2.25;2.00;;;;;;;;5070097;28;8811;-79
2024/01/22 15:03:37;;;;;;;;;1.00;0.25;;;;;;;;5065139;28;8855;-80